Time;durP1;ratioP1;P1;durP2;ratioP2;P2;SDS_P1;SDS_P2;PMS_P1;PMS_P2;Temp;Humidity;BMP_temperature;BMP_pressure;BME280_temperature;BME280_humidity;BME280_pressure;Samples;Min_cycle;Max_cycle;Signal;HPM_P1;HPM_P2
2022/08/31 00:04:04;;;;;;;6.65;1.75;;;;;;;;;;4951589;29;20472;-71
2022/08/31 00:06:31;;;;;;;3.47;1.75;;;;;;;;;;4949734;29;20487;-71
2022/08/31 00:08:57;;;;;;;2.75;1.73;;;;;;;;;;4951238;29;20035;-72
2022/08/31 00:11:30;;;;;;;1.58;1.30;;;;;;;;;;4973552;23;20051;-77
2022/08/31 00:14:01;;;;;;;2.25;1.30;;;;;;;;;;4951542;28;20019;-76
2022/08/31 00:16:28;;;;;;;3.63;1.50;;;;;;;;;;4951618;29;20035;-77
2022/08/31 00:18:54;;;;;;;6.35;1.50;;;;;;;;;;4951384;29;20408;-78
2022/08/31 00:21:23;;;;;;;2.28;1.40;;;;;;;;;;4950473;28;20511;-75
2022/08/31 00:23:49;;;;;;;2.47;1.40;;;;;;;;;;4951298;29;20034;-76
2022/08/31 00:26:16;;;;;;;6.18;2.20;;;;;;;;;;4951141;28;20028;-76
2022/08/31 00:28:42;;;;;;;2.15;1.55;;;;;;;;;;4951428;29;20074;-77
2022/08/31 00:31:08;;;;;;;3.78;1.80;;;;;;;;;;4951161;28;20039;-76
2022/08/31 00:33:35;;;;;;;2.13;1.40;;;;;;;;;;4951369;28;20074;-76
2022/08/31 00:36:01;;;;;;;5.13;1.55;;;;;;;;;;4951162;28;20050;-76
2022/08/31 00:38:27;;;;;;;3.65;1.55;;;;;;;;;;4951287;29;20034;-77
2022/08/31 00:40:53;;;;;;;3.28;1.45;;;;;;;;;;4951156;28;20027;-77
2022/08/31 00:43:37;;;;;;;2.72;1.40;;;;;;;;;;4951323;29;20043;-78
2022/08/31 00:46:03;;;;;;;1.60;1.13;;;;;;;;;;4951356;29;20467;-80
2022/08/31 00:48:29;;;;;;;3.17;1.50;;;;;;;;;;4951660;28;20392;-78
2022/08/31 00:50:55;;;;;;;2.97;1.10;;;;;;;;;;4953349;28;20046;-76
2022/08/31 00:53:21;;;;;;;2.65;1.38;;;;;;;;;;4952056;29;20077;-77
2022/08/31 00:55:47;;;;;;;1.63;1.10;;;;;;;;;;4950188;28;20020;-78
2022/08/31 00:58:13;;;;;;;4.07;1.40;;;;;;;;;;4951193;29;20072;-76
2022/08/31 01:00:41;;;;;;;2.85;1.38;;;;;;;;;;4951323;28;20525;-76
2022/08/31 01:03:08;;;;;;;2.33;1.45;;;;;;;;;;4951348;29;20028;-78
2022/08/31 01:05:34;;;;;;;5.63;1.40;;;;;;;;;;4952162;29;20031;-78
2022/08/31 01:08:01;;;;;;;3.53;1.48;;;;;;;;;;4952466;29;20165;-76
2022/08/31 01:10:30;;;;;;;2.38;1.30;;;;;;;;;;4957292;28;20035;-78
2022/08/31 01:12:56;;;;;;;1.25;1.05;;;;;;;;;;4961369;29;20037;-78
2022/08/31 01:15:23;;;;;;;3.40;1.10;;;;;;;;;;4960003;29;20028;-77
2022/08/31 01:17:50;;;;;;;1.80;0.90;;;;;;;;;;4953030;29;20069;-79
2022/08/31 01:20:21;;;;;;;2.08;1.13;;;;;;;;;;4950160;28;20035;-75
2022/08/31 01:22:53;;;;;;;6.25;1.30;;;;;;;;;;4949569;28;20083;-76
2022/08/31 01:25:19;;;;;;;1.60;0.93;;;;;;;;;;4950565;29;20074;-76
2022/08/31 01:27:46;;;;;;;3.35;1.00;;;;;;;;;;4950573;28;20035;-77
2022/08/31 01:30:13;;;;;;;4.00;1.20;;;;;;;;;;4950859;28;20035;-75
2022/08/31 01:32:39;;;;;;;7.47;1.13;;;;;;;;;;4959128;28;20106;-75
2022/08/31 01:35:06;;;;;;;1.48;1.00;;;;;;;;;;4958632;29;20472;-76
2022/08/31 01:37:32;;;;;;;4.03;1.13;;;;;;;;;;4957360;28;20061;-78
2022/08/31 01:39:58;;;;;;;1.58;1.10;;;;;;;;;;4967203;28;20042;-78
2022/08/31 01:42:27;;;;;;;1.95;0.93;;;;;;;;;;4965874;29;20039;-78
2022/08/31 01:44:53;;;;;;;4.82;1.13;;;;;;;;;;4958416;28;20057;-78
2022/08/31 01:47:19;;;;;;;4.72;1.20;;;;;;;;;;4954093;29;20466;-77
2022/08/31 01:49:44;;;;;;;3.95;1.13;;;;;;;;;;4953892;28;20369;-77
2022/08/31 01:52:10;;;;;;;1.73;1.10;;;;;;;;;;4952754;29;20027;-77
2022/08/31 01:54:36;;;;;;;4.20;1.42;;;;;;;;;;4953537;29;20110;-77
2022/08/31 01:57:02;;;;;;;3.85;1.20;;;;;;;;;;4953675;29;20476;-76
2022/08/31 01:59:29;;;;;;;1.77;1.20;;;;;;;;;;4954273;28;20057;-76
2022/08/31 02:01:55;;;;;;;2.58;1.38;;;;;;;;;;4957944;28;20049;-76
2022/08/31 02:04:23;;;;;;;2.58;1.38;;;;;;;;;;4963156;28;20114;-76
2022/08/31 02:06:50;;;;;;;4.97;1.48;;;;;;;;;;4962561;29;20077;-74
2022/08/31 02:09:16;;;;;;;2.13;1.40;;;;;;;;;;4964466;28;20035;-76
2022/08/31 02:11:42;;;;;;;6.78;1.50;;;;;;;;;;4961336;28;20038;-76
2022/08/31 02:14:09;;;;;;;2.97;1.15;;;;;;;;;;4958544;28;20035;-78
2022/08/31 02:16:35;;;;;;;1.88;1.20;;;;;;;;;;4954373;28;20032;-77
2022/08/31 02:19:02;;;;;;;2.30;1.38;;;;;;;;;;4955642;28;20491;-77
2022/08/31 02:21:28;;;;;;;4.43;1.10;;;;;;;;;;4954691;28;20028;-77
2022/08/31 02:23:54;;;;;;;2.00;1.13;;;;;;;;;;4954485;28;20031;-77
2022/08/31 02:26:20;;;;;;;2.47;1.20;;;;;;;;;;4954881;28;20109;-77
2022/08/31 02:28:46;;;;;;;2.72;1.10;;;;;;;;;;4953958;28;20479;-77
2022/08/31 02:31:12;;;;;;;2.03;1.25;;;;;;;;;;4953455;28;20031;-76
2022/08/31 02:33:38;;;;;;;2.95;1.23;;;;;;;;;;4951950;29;20023;-76
2022/08/31 02:36:05;;;;;;;2.85;1.20;;;;;;;;;;4953296;28;20030;-75
2022/08/31 02:38:32;;;;;;;2.35;1.23;;;;;;;;;;4953390;28;20028;-76
2022/08/31 02:40:58;;;;;;;6.90;1.38;;;;;;;;;;4952880;28;20114;-78
2022/08/31 02:43:24;;;;;;;2.50;1.17;;;;;;;;;;4952351;28;20031;-78
2022/08/31 02:45:50;;;;;;;3.08;1.13;;;;;;;;;;4953631;28;20031;-78
2022/08/31 02:48:16;;;;;;;4.30;1.10;;;;;;;;;;4953991;28;20031;-77
2022/08/31 02:50:44;;;;;;;3.00;1.15;;;;;;;;;;4953678;28;20038;-77
2022/08/31 02:53:12;;;;;;;3.72;1.30;;;;;;;;;;4952519;29;20118;-76
2022/08/31 02:55:38;;;;;;;5.78;1.20;;;;;;;;;;4953482;28;20047;-79
2022/08/31 02:58:05;;;;;;;3.63;1.40;;;;;;;;;;4954600;28;20026;-76
2022/08/31 03:00:31;;;;;;;6.18;1.15;;;;;;;;;;4954564;28;20062;-78
2022/08/31 03:02:57;;;;;;;2.90;1.40;;;;;;;;;;4953065;28;20032;-76
2022/08/31 03:05:23;;;;;;;1.80;1.20;;;;;;;;;;4955570;28;20387;-76
2022/08/31 03:07:50;;;;;;;1.85;1.15;;;;;;;;;;4952603;29;20031;-77
2022/08/31 03:10:16;;;;;;;2.15;1.10;;;;;;;;;;4952361;28;20035;-76
2022/08/31 03:12:42;;;;;;;1.90;1.08;;;;;;;;;;4952123;29;20472;-76
2022/08/31 03:15:09;;;;;;;2.92;1.17;;;;;;;;;;4952448;28;20425;-77
2022/08/31 03:17:35;;;;;;;3.63;1.15;;;;;;;;;;4951954;28;20023;-76
2022/08/31 03:20:03;;;;;;;2.13;1.20;;;;;;;;;;4952536;28;20522;-76
2022/08/31 03:22:30;;;;;;;2.35;1.30;;;;;;;;;;4952311;28;20023;-76
2022/08/31 03:24:56;;;;;;;5.82;1.65;;;;;;;;;;4952237;28;20131;-76
2022/08/31 03:27:23;;;;;;;4.38;1.90;;;;;;;;;;4951922;28;20028;-76
2022/08/31 03:29:49;;;;;;;2.97;1.40;;;;;;;;;;4951852;28;20427;-75
2022/08/31 03:32:15;;;;;;;2.45;1.50;;;;;;;;;;4952015;28;20024;-76
2022/08/31 03:34:41;;;;;;;2.50;1.42;;;;;;;;;;4950721;29;20353;-77
2022/08/31 03:37:07;;;;;;;3.25;1.60;;;;;;;;;;4951750;28;20080;-77
2022/08/31 03:39:33;;;;;;;4.35;1.65;;;;;;;;;;4952189;28;20106;-76
2022/08/31 03:41:58;;;;;;;1.70;1.10;;;;;;;;;;4952324;28;20552;-77
2022/08/31 03:44:24;;;;;;;2.35;1.45;;;;;;;;;;4952266;28;20392;-76
2022/08/31 03:46:54;;;;;;;2.67;1.27;;;;;;;;;;4952897;28;20369;-75
2022/08/31 03:49:20;;;;;;;2.95;1.77;;;;;;;;;;4952803;28;20027;-76
2022/08/31 03:51:46;;;;;;;2.75;1.20;;;;;;;;;;4952728;29;20033;-75
2022/08/31 03:54:12;;;;;;;2.10;1.15;;;;;;;;;;4952899;28;20027;-76
2022/08/31 03:56:38;;;;;;;2.95;1.77;;;;;;;;;;4967840;28;20012;-76
2022/08/31 03:59:05;;;;;;;8.20;2.03;;;;;;;;;;4952959;28;20038;-77
2022/08/31 04:01:31;;;;;;;6.15;1.90;;;;;;;;;;4952188;28;20030;-75
2022/08/31 04:03:57;;;;;;;14.88;7.25;;;;;;;;;;4951144;29;20062;-77
2022/08/31 04:06:23;;;;;;;3.63;1.73;;;;;;;;;;4951946;28;20072;-76
2022/08/31 04:08:49;;;;;;;2.78;1.50;;;;;;;;;;4952732;28;20050;-77
2022/08/31 04:11:16;;;;;;;2.78;1.50;;;;;;;;;;4954090;28;20396;-77
2022/08/31 04:13:42;;;;;;;3.58;1.63;;;;;;;;;;4952134;28;20031;-77
2022/08/31 04:16:11;;;;;;;3.58;1.42;;;;;;;;;;4951941;28;20150;-76
2022/08/31 04:18:41;;;;;;;4.18;1.50;;;;;;;;;;4952002;28;20027;-76
2022/08/31 04:21:14;;;;;;;11.25;2.72;;;;;;;;;;4951850;28;20046;-76
2022/08/31 04:23:40;;;;;;;4.82;1.60;;;;;;;;;;4951827;29;20042;-76
2022/08/31 04:26:09;;;;;;;2.72;1.50;;;;;;;;;;4950286;29;20031;-78
2022/08/31 04:28:35;;;;;;;4.60;2.50;;;;;;;;;;4951885;28;20031;-74
2022/08/31 04:31:07;;;;;;;5.93;2.58;;;;;;;;;;4951591;28;20047;-76
2022/08/31 04:33:33;;;;;;;3.78;1.90;;;;;;;;;;4952082;28;20058;-77
2022/08/31 04:35:59;;;;;;;3.10;1.67;;;;;;;;;;4951133;28;20027;-77
2022/08/31 04:38:25;;;;;;;3.55;1.52;;;;;;;;;;4950018;29;20111;-75
2022/08/31 04:40:51;;;;;;;2.50;1.42;;;;;;;;;;4951356;28;20058;-76
2022/08/31 04:43:17;;;;;;;3.60;1.65;;;;;;;;;;4951265;29;20035;-76
2022/08/31 04:45:43;;;;;;;3.17;1.60;;;;;;;;;;4951114;28;20097;-76
2022/08/31 04:48:09;;;;;;;4.55;1.58;;;;;;;;;;4952196;28;20507;-76
2022/08/31 04:50:35;;;;;;;5.85;2.53;;;;;;;;;;4952235;28;20034;-76
2022/08/31 04:53:01;;;;;;;5.15;2.30;;;;;;;;;;4950118;29;20088;-77
2022/08/31 04:55:27;;;;;;;2.45;1.58;;;;;;;;;;4950653;29;20057;-75
2022/08/31 04:57:53;;;;;;;5.30;2.85;;;;;;;;;;4953477;28;20042;-76
2022/08/31 05:00:20;;;;;;;7.50;2.40;;;;;;;;;;4956183;28;20038;-77
2022/08/31 05:02:46;;;;;;;6.75;2.10;;;;;;;;;;4953288;28;20108;-76
2022/08/31 05:05:12;;;;;;;3.78;2.10;;;;;;;;;;4953090;28;20027;-76
2022/08/31 05:07:38;;;;;;;7.13;2.67;;;;;;;;;;4955165;28;20142;-76
2022/08/31 05:10:04;;;;;;;6.32;2.80;;;;;;;;;;4956928;28;20110;-75
2022/08/31 05:12:30;;;;;;;9.32;2.05;;;;;;;;;;4964538;28;20032;-76
2022/08/31 05:14:56;;;;;;;5.10;2.47;;;;;;;;;;4962508;28;20053;-75
2022/08/31 05:17:22;;;;;;;3.83;2.20;;;;;;;;;;4962517;28;20099;-76
2022/08/31 05:19:50;;;;;;;4.95;2.08;;;;;;;;;;4960139;28;20433;-77
2022/08/31 05:22:16;;;;;;;5.90;2.75;;;;;;;;;;4960760;28;20089;-76
2022/08/31 05:24:42;;;;;;;6.05;2.47;;;;;;;;;;4957784;28;20484;-75
2022/08/31 05:27:08;;;;;;;4.10;2.00;;;;;;;;;;4955703;28;20341;-77
2022/08/31 05:29:34;;;;;;;7.38;2.30;;;;;;;;;;4955870;28;20087;-80
2022/08/31 05:32:01;;;;;;;7.28;2.28;;;;;;;;;;4954880;29;20035;-76
2022/08/31 05:34:27;;;;;;;5.32;2.40;;;;;;;;;;4955580;28;20030;-77
2022/08/31 05:36:54;;;;;;;5.15;1.95;;;;;;;;;;4953079;29;20028;-75
2022/08/31 05:39:20;;;;;;;4.70;2.20;;;;;;;;;;4954615;28;20035;-75
2022/08/31 05:41:47;;;;;;;3.78;1.90;;;;;;;;;;4953236;29;20023;-76
2022/08/31 05:44:13;;;;;;;8.10;2.50;;;;;;;;;;4955086;28;20109;-74
2022/08/31 05:46:39;;;;;;;4.03;2.03;;;;;;;;;;4953395;29;20027;-77
2022/08/31 05:49:06;;;;;;;7.85;2.83;;;;;;;;;;4956124;28;20031;-76
2022/08/31 05:51:32;;;;;;;24.35;13.10;;;;;;;;;;4953300;28;20494;-77
2022/08/31 05:53:59;;;;;;;7.38;3.67;;;;;;;;;;4954311;28;20028;-75
2022/08/31 05:56:25;;;;;;;5.13;2.10;;;;;;;;;;4954092;28;20024;-76
2022/08/31 05:58:51;;;;;;;4.30;1.75;;;;;;;;;;4954722;28;20073;-77
2022/08/31 06:01:25;;;;;;;7.13;2.05;;;;;;;;;;4954727;28;20054;-75
2022/08/31 06:03:53;;;;;;;5.25;1.88;;;;;;;;;;4956443;28;20085;-76
2022/08/31 06:06:19;;;;;;;3.42;2.10;;;;;;;;;;4961935;28;20369;-75
2022/08/31 06:08:45;;;;;;;6.78;2.13;;;;;;;;;;4960956;28;20373;-76
2022/08/31 06:11:18;;;;;;;3.70;1.90;;;;;;;;;;4962195;28;20046;-76
2022/08/31 06:13:44;;;;;;;5.25;2.13;;;;;;;;;;4960471;28;20024;-74
2022/08/31 06:16:10;;;;;;;3.33;1.60;;;;;;;;;;4959811;28;20045;-74
2022/08/31 06:18:37;;;;;;;4.90;1.80;;;;;;;;;;4958525;28;20047;-75
2022/08/31 06:21:07;;;;;;;3.67;2.00;;;;;;;;;;4960187;28;20023;-75
2022/08/31 06:23:34;;;;;;;8.52;3.00;;;;;;;;;;4958755;29;20085;-76
2022/08/31 06:26:01;;;;;;;10.23;2.70;;;;;;;;;;4957147;29;20237;-75
2022/08/31 06:28:31;;;;;;;6.53;3.40;;;;;;;;;;4956055;28;20361;-76
2022/08/31 06:30:57;;;;;;;8.45;3.95;;;;;;;;;;4957999;28;20015;-74
2022/08/31 06:33:23;;;;;;;6.68;1.73;;;;;;;;;;4963191;29;20069;-75
2022/08/31 06:35:49;;;;;;;3.45;1.77;;;;;;;;;;4953959;28;20039;-75
2022/08/31 06:38:15;;;;;;;6.25;1.70;;;;;;;;;;4953842;28;20354;-75
2022/08/31 06:40:41;;;;;;;2.90;1.73;;;;;;;;;;4953934;28;20027;-78
2022/08/31 06:43:07;;;;;;;5.70;1.88;;;;;;;;;;4954288;29;20451;-78
2022/08/31 06:45:33;;;;;;;5.15;1.95;;;;;;;;;;4955068;28;20031;-77
2022/08/31 06:47:59;;;;;;;8.77;1.88;;;;;;;;;;4954439;28;20077;-75
2022/08/31 06:50:25;;;;;;;2.88;1.40;;;;;;;;;;4953393;28;20653;-75
2022/08/31 06:52:51;;;;;;;3.63;1.80;;;;;;;;;;4954145;28;20043;-74
2022/08/31 06:55:17;;;;;;;4.15;1.80;;;;;;;;;;4953671;28;20019;-74
2022/08/31 06:57:43;;;;;;;5.32;2.20;;;;;;;;;;4953823;29;20392;-75
2022/08/31 07:00:09;;;;;;;5.53;3.00;;;;;;;;;;4954157;28;20154;-74
2022/08/31 07:02:35;;;;;;;7.07;3.33;;;;;;;;;;4955854;28;20137;-78
2022/08/31 07:05:01;;;;;;;7.35;2.10;;;;;;;;;;4955416;28;20130;-73
2022/08/31 07:07:27;;;;;;;5.90;2.53;;;;;;;;;;4952695;29;20037;-76
2022/08/31 07:09:53;;;;;;;27.67;16.25;;;;;;;;;;4953971;28;20043;-77
2022/08/31 07:12:19;;;;;;;16.38;8.18;;;;;;;;;;4953634;28;20111;-76
2022/08/31 07:14:45;;;;;;;21.50;4.38;;;;;;;;;;4956594;28;20047;-77
2022/08/31 07:17:12;;;;;;;12.43;4.88;;;;;;;;;;4955693;28;20027;-77
2022/08/31 07:19:37;;;;;;;9.63;3.58;;;;;;;;;;4954681;28;20090;-75
2022/08/31 07:22:05;;;;;;;25.23;11.30;;;;;;;;;;4954844;28;20032;-77
2022/08/31 07:24:33;;;;;;;25.27;8.10;;;;;;;;;;4954810;28;20031;-75
2022/08/31 07:27:03;;;;;;;10.13;3.65;;;;;;;;;;4954148;28;20023;-75
2022/08/31 07:29:30;;;;;;;4.00;1.70;;;;;;;;;;4953266;28;20618;-76
2022/08/31 07:31:58;;;;;;;8.65;3.45;;;;;;;;;;4953335;28;20024;-75
2022/08/31 07:34:29;;;;;;;8.02;1.83;;;;;;;;;;4953125;29;20036;-76
2022/08/31 07:42:42;;;;;;;2.95;1.00;;;;;;;;;;4972090;29;20041;-75
2022/08/31 07:45:11;;;;;;;3.65;1.85;;;;;;;;;;4972096;28;20062;-76
2022/08/31 07:47:43;;;;;;;4.25;1.67;;;;;;;;;;4966178;28;20431;-76
2022/08/31 07:50:09;;;;;;;6.60;1.55;;;;;;;;;;4954905;28;20050;-76
2022/08/31 07:52:43;;;;;;;5.28;1.33;;;;;;;;;;4954398;28;20024;-78
2022/08/31 07:55:10;;;;;;;2.37;0.80;;;;;;;;;;4958612;28;20019;-74
2022/08/31 07:57:42;;;;;;;2.85;1.60;;;;;;;;;;4953181;28;20300;-76
2022/08/31 08:00:09;;;;;;;5.28;0.98;;;;;;;;;;4953766;28;20388;-77
2022/08/31 08:02:38;;;;;;;3.60;0.90;;;;;;;;;;4953271;28;20023;-76
2022/08/31 08:05:09;;;;;;;3.97;1.00;;;;;;;;;;4953730;28;20089;-77
2022/08/31 08:07:36;;;;;;;2.97;1.35;;;;;;;;;;4955121;29;20031;-76
2022/08/31 08:10:03;;;;;;;2.63;0.98;;;;;;;;;;4958550;28;20110;-75
2022/08/31 08:12:34;;;;;;;1.55;0.65;;;;;;;;;;4959038;28;20045;-77
2022/08/31 08:15:00;;;;;;;4.40;2.03;;;;;;;;;;4960354;29;20050;-75
2022/08/31 08:17:26;;;;;;;4.10;1.23;;;;;;;;;;4957576;28;20073;-75
2022/08/31 08:19:52;;;;;;;4.40;2.20;;;;;;;;;;4959525;28;20050;-75
2022/08/31 08:22:18;;;;;;;4.47;1.85;;;;;;;;;;4961291;29;20036;-76
2022/08/31 08:24:46;;;;;;;2.15;1.40;;;;;;;;;;4958160;28;20050;-75
2022/08/31 08:27:12;;;;;;;3.47;1.10;;;;;;;;;;4955721;28;20023;-75
2022/08/31 08:29:39;;;;;;;4.75;1.40;;;;;;;;;;4952810;28;20027;-74
2022/08/31 08:32:07;;;;;;;2.22;1.20;;;;;;;;;;4951931;29;20043;-76
2022/08/31 08:34:33;;;;;;;2.83;1.13;;;;;;;;;;4952112;29;20023;-75
2022/08/31 08:36:59;;;;;;;4.53;1.35;;;;;;;;;;4953256;28;20027;-75
2022/08/31 08:39:26;;;;;;;3.47;1.40;;;;;;;;;;4955348;28;20107;-76
2022/08/31 08:41:52;;;;;;;1.33;0.93;;;;;;;;;;4956484;28;20373;-76
2022/08/31 08:44:18;;;;;;;2.25;1.10;;;;;;;;;;4961228;28;20028;-75
2022/08/31 08:46:55;;;;;;;4.35;1.38;;;;;;;;;;4967186;28;20019;-76
2022/08/31 08:49:27;;;;;;;4.03;0.90;;;;;;;;;;4968084;28;20031;-76
2022/08/31 08:51:55;;;;;;;2.35;0.80;;;;;;;;;;4958979;28;20027;-76
2022/08/31 08:54:32;;;;;;;3.03;1.00;;;;;;;;;;4956330;28;20053;-74
2022/08/31 08:56:59;;;;;;;4.40;1.42;;;;;;;;;;4955857;28;20512;-75
2022/08/31 08:59:27;;;;;;;3.50;1.83;;;;;;;;;;4955965;28;20079;-75
2022/08/31 09:01:56;;;;;;;2.60;1.30;;;;;;;;;;4955482;28;20051;-74
2022/08/31 09:04:22;;;;;;;4.75;1.50;;;;;;;;;;4955850;28;20047;-75
2022/08/31 09:07:07;;;;;;;4.90;1.08;;;;;;;;;;4955133;28;20032;-75
2022/08/31 09:09:46;;;;;;;2.55;1.38;;;;;;;;;;4955552;28;20027;-76
2022/08/31 09:12:30;;;;;;;4.43;1.00;;;;;;;;;;4955811;28;20061;-75
2022/08/31 09:15:20;;;;;;;1.52;0.90;;;;;;;;;;4954250;29;20023;-76
2022/08/31 09:17:54;;;;;;;5.03;0.90;;;;;;;;;;4957713;28;20022;-74
2022/08/31 09:20:20;;;;;;;1.87;1.00;;;;;;;;;;4954057;28;20027;-76
2022/08/31 09:22:51;;;;;;;2.72;1.00;;;;;;;;;;4955131;28;20442;-74
2022/08/31 09:25:34;;;;;;;1.77;0.95;;;;;;;;;;4955549;28;20035;-74
2022/08/31 09:28:05;;;;;;;1.48;0.90;;;;;;;;;;4955684;28;20492;-76
2022/08/31 09:30:37;;;;;;;6.90;1.00;;;;;;;;;;4957110;28;20129;-74
2022/08/31 09:33:03;;;;;;;2.33;0.80;;;;;;;;;;4960059;28;20050;-76
2022/08/31 09:35:39;;;;;;;2.78;1.48;;;;;;;;;;4958984;28;20049;-75
2022/08/31 09:38:13;;;;;;;3.35;1.30;;;;;;;;;;4961211;28;20057;-76
2022/08/31 09:40:39;;;;;;;2.25;0.80;;;;;;;;;;4955218;28;20023;-75
2022/08/31 09:43:07;;;;;;;1.42;0.70;;;;;;;;;;4953637;29;20039;-76
2022/08/31 09:45:36;;;;;;;3.22;0.80;;;;;;;;;;4954387;28;20027;-75
2022/08/31 09:48:05;;;;;;;2.03;0.75;;;;;;;;;;4954754;28;20027;-74
2022/08/31 09:50:33;;;;;;;1.35;0.93;;;;;;;;;;4954228;28;20085;-75
2022/08/31 09:56:12;;;;;;;1.40;0.80;;;;;;;;;;4958705;29;20038;-76
2022/08/31 09:58:40;;;;;;;5.95;1.20;;;;;;;;;;4968274;28;20027;-75
2022/08/31 10:01:11;;;;;;;6.25;1.33;;;;;;;;;;4956050;28;20070;-76
2022/08/31 10:03:37;;;;;;;1.85;0.88;;;;;;;;;;4955583;28;20027;-74
2022/08/31 10:06:08;;;;;;;2.33;0.75;;;;;;;;;;4954476;28;20460;-75
2022/08/31 10:08:40;;;;;;;1.63;0.80;;;;;;;;;;4956193;28;20031;-75
2022/08/31 10:11:10;;;;;;;2.47;0.77;;;;;;;;;;4954180;28;20111;-76
2022/08/31 10:13:39;;;;;;;3.05;1.17;;;;;;;;;;4953561;29;20031;-75
2022/08/31 10:16:15;;;;;;;1.67;1.17;;;;;;;;;;4954924;28;20035;-78
2022/08/31 10:18:46;;;;;;;2.70;1.15;;;;;;;;;;4955988;28;20157;-76
2022/08/31 10:21:15;;;;;;;3.83;1.75;;;;;;;;;;4953556;28;20027;-76
2022/08/31 10:24:04;;;;;;;1.98;1.20;;;;;;;;;;4954721;28;20035;-76
2022/08/31 10:26:39;;;;;;;1.70;0.80;;;;;;;;;;4950226;28;20118;-75
2022/08/31 10:29:12;;;;;;;7.03;1.50;;;;;;;;;;4977570;28;20023;-74
2022/08/31 10:31:44;;;;;;;7.18;2.40;;;;;;;;;;4966634;28;20085;-77
2022/08/31 10:36:58;;;;;;;8.80;1.40;;;;;;;;;;4955440;29;20042;-77
2022/08/31 10:39:28;;;;;;;4.32;1.60;;;;;;;;;;4955363;28;20558;-78
2022/08/31 10:41:54;;;;;;;6.85;2.95;;;;;;;;;;4956654;28;20480;-79
2022/08/31 10:44:35;;;;;;;3.35;1.10;;;;;;;;;;4955211;28;20487;-78
2022/08/31 10:47:04;;;;;;;6.95;2.63;;;;;;;;;;4958143;28;20027;-77
2022/08/31 10:49:34;;;;;;;3.97;1.92;;;;;;;;;;4954302;28;20030;-76
2022/08/31 10:52:05;;;;;;;2.65;1.00;;;;;;;;;;4955255;28;20023;-77
2022/08/31 10:54:43;;;;;;;6.70;0.70;;;;;;;;;;4955380;28;20539;-76
2022/08/31 10:57:21;;;;;;;2.47;1.20;;;;;;;;;;4953451;29;20114;-77
2022/08/31 10:59:56;;;;;;;3.90;2.40;;;;;;;;;;4954471;28;20110;-76
2022/08/31 11:02:38;;;;;;;3.08;1.38;;;;;;;;;;4954063;28;20039;-78
2022/08/31 11:05:13;;;;;;;3.67;2.00;;;;;;;;;;4954646;28;20074;-76
2022/08/31 11:07:49;;;;;;;3.20;2.20;;;;;;;;;;4955905;28;20043;-75
2022/08/31 11:10:21;;;;;;;6.22;1.70;;;;;;;;;;4954141;28;20043;-77
2022/08/31 11:12:50;;;;;;;1.08;0.80;;;;;;;;;;4955961;28;20023;-76
2022/08/31 11:15:16;;;;;;;4.68;1.90;;;;;;;;;;4959779;28;20022;-76
2022/08/31 11:17:58;;;;;;;2.47;1.13;;;;;;;;;;4960698;28;20106;-76
2022/08/31 11:20:43;;;;;;;3.05;1.23;;;;;;;;;;4956558;28;20032;-77
2022/08/31 11:23:09;;;;;;;;;;;;;;;;;;4961074;28;20081;-77
2022/08/31 11:25:49;;;;;;;4.32;1.02;;;;;;;;;;4958821;28;19906;-76
2022/08/31 11:28:32;;;;;;;2.28;1.33;;;;;;;;;;4963110;28;20031;-76
2022/08/31 11:31:00;;;;;;;3.22;1.17;;;;;;;;;;4959600;28;20028;-77
2022/08/31 11:33:27;;;;;;;1.40;0.90;;;;;;;;;;4957120;28;20019;-77
2022/08/31 11:35:59;;;;;;;3.38;1.00;;;;;;;;;;4955432;29;20047;-77
2022/08/31 11:38:41;;;;;;;2.45;1.00;;;;;;;;;;4954425;28;20032;-76
2022/08/31 11:41:10;;;;;;;1.08;0.90;;;;;;;;;;4954601;28;20487;-75
2022/08/31 11:43:36;;;;;;;3.13;0.77;;;;;;;;;;4953614;29;20035;-76
2022/08/31 11:46:24;;;;;;;1.17;0.90;;;;;;;;;;4955152;28;20392;-75
2022/08/31 11:48:50;;;;;;;1.02;0.70;;;;;;;;;;4954747;28;20125;-76
2022/08/31 11:51:36;;;;;;;2.25;1.05;;;;;;;;;;4954578;28;20023;-76
2022/08/31 11:54:05;;;;;;;3.50;1.75;;;;;;;;;;4955013;29;20589;-75
2022/08/31 11:56:43;;;;;;;3.08;0.98;;;;;;;;;;4953695;28;20031;-76
2022/08/31 11:59:25;;;;;;;4.78;1.38;;;;;;;;;;4952092;29;20030;-75
2022/08/31 12:01:53;;;;;;;2.58;1.13;;;;;;;;;;4955480;29;20073;-75
2022/08/31 12:04:45;;;;;;;4.63;1.10;;;;;;;;;;4953063;29;20385;-78
2022/08/31 12:07:25;;;;;;;2.28;1.15;;;;;;;;;;5023774;28;20029;-75
2022/08/31 12:10:10;;;;;;;1.83;1.05;;;;;;;;;;5055112;28;20031;-77
2022/08/31 12:12:35;;;;;;;;;;;;;;;;;;4993985;22;20129;-75
2022/08/31 12:15:12;;;;;;;4.68;1.05;;;;;;;;;;4954893;28;20018;-75
2022/08/31 12:17:38;;;;;;;2.50;1.15;;;;;;;;;;4954550;28;20119;-76
2022/08/31 12:20:08;;;;;;;7.22;3.03;;;;;;;;;;4953073;28;20081;-74
2022/08/31 12:25:56;;;;;;;1.23;0.80;;;;;;;;;;4954864;28;20058;-76
2022/08/31 12:28:22;;;;;;;3.58;0.68;;;;;;;;;;4952629;28;20032;-77
2022/08/31 12:30:53;;;;;;;1.55;0.80;;;;;;;;;;4952175;28;20585;-75
2022/08/31 12:33:21;;;;;;;3.28;1.00;;;;;;;;;;4953496;29;20023;-75
2022/08/31 12:35:48;;;;;;;1.90;1.00;;;;;;;;;;4956481;28;20425;-78
2022/08/31 12:38:21;;;;;;;1.67;0.80;;;;;;;;;;4952216;29;20024;-77
2022/08/31 12:40:53;;;;;;;2.17;0.90;;;;;;;;;;4954236;28;20046;-76
2022/08/31 12:43:31;;;;;;;2.13;1.00;;;;;;;;;;4953309;28;20484;-76
2022/08/31 12:46:15;;;;;;;1.70;0.93;;;;;;;;;;4960202;29;20028;-75
2022/08/31 12:48:59;;;;;;;3.70;1.13;;;;;;;;;;4953764;29;20039;-75
2022/08/31 12:51:28;;;;;;;1.00;0.90;;;;;;;;;;4954448;28;20031;-77
2022/08/31 12:53:54;;;;;;;5.45;1.40;;;;;;;;;;4952283;28;20062;-76
2022/08/31 12:56:33;;;;;;;2.97;1.10;;;;;;;;;;4952768;28;20019;-76
2022/08/31 12:59:02;;;;;;;1.48;0.80;;;;;;;;;;4951678;28;20045;-77
2022/08/31 13:01:28;;;;;;;3.05;1.00;;;;;;;;;;5044979;28;20434;-77
2022/08/31 13:03:55;;;;;;;5.82;0.95;;;;;;;;;;5051231;28;20169;-77
2022/08/31 13:06:23;;;;;;;1.25;0.70;;;;;;;;;;5052649;28;20033;-77
2022/08/31 13:08:50;;;;;;;2.63;0.98;;;;;;;;;;5053010;28;20033;-76
2022/08/31 13:11:19;;;;;;;2.05;1.00;;;;;;;;;;5052326;28;20033;-77
2022/08/31 13:13:45;;;;;;;2.20;1.00;;;;;;;;;;5051925;28;20025;-76
2022/08/31 13:16:11;;;;;;;2.75;0.88;;;;;;;;;;5054131;28;20021;-76
2022/08/31 13:18:38;;;;;;;2.83;1.20;;;;;;;;;;5055315;28;20053;-76
2022/08/31 13:21:04;;;;;;;2.85;1.25;;;;;;;;;;5055366;28;20025;-76
2022/08/31 13:23:33;;;;;;;4.70;1.50;;;;;;;;;;5053156;28;20482;-75
2022/08/31 13:26:12;;;;;;;1.75;1.10;;;;;;;;;;5053491;28;20029;-76
2022/08/31 13:28:38;;;;;;;6.10;1.40;;;;;;;;;;5056249;28;20020;-75
2022/08/31 13:31:07;;;;;;;5.78;1.67;;;;;;;;;;5056707;28;20033;-75
2022/08/31 13:33:35;;;;;;;3.47;1.42;;;;;;;;;;5057662;28;20021;-74
2022/08/31 13:36:04;;;;;;;2.47;1.20;;;;;;;;;;5054735;28;20164;-75
2022/08/31 13:38:43;;;;;;;3.78;2.15;;;;;;;;;;5056086;28;20017;-75
2022/08/31 13:41:36;;;;;;;2.17;1.35;;;;;;;;;;5055546;28;20024;-75
2022/08/31 13:44:04;;;;;;;6.60;1.10;;;;;;;;;;5057098;28;20041;-76
2022/08/31 13:46:42;;;;;;;1.63;0.90;;;;;;;;;;5057938;28;20036;-76
2022/08/31 13:49:09;;;;;;;3.25;0.98;;;;;;;;;;5057258;28;20028;-77
2022/08/31 13:51:38;;;;;;;3.08;0.90;;;;;;;;;;5057043;28;20112;-76
2022/08/31 13:54:10;;;;;;;2.05;1.20;;;;;;;;;;5057667;28;20024;-76
2022/08/31 13:56:57;;;;;;;4.47;1.15;;;;;;;;;;5057938;28;20043;-77
2022/08/31 13:59:26;;;;;;;3.80;2.15;;;;;;;;;;5062451;28;20036;-77
2022/08/31 14:01:55;;;;;;;3.40;1.27;;;;;;;;;;5068139;28;20025;-76
2022/08/31 14:04:49;;;;;;;2.92;1.08;;;;;;;;;;5058010;28;20021;-74
2022/08/31 14:07:50;;;;;;;4.32;0.93;;;;;;;;;;5055681;28;20040;-76
2022/08/31 14:10:19;;;;;;;2.30;1.10;;;;;;;;;;5060652;28;20127;-76
2022/08/31 14:12:54;;;;;;;2.28;0.98;;;;;;;;;;5058032;28;20029;-75
2022/08/31 14:15:34;;;;;;;3.10;1.20;;;;;;;;;;5057378;28;20120;-76
2022/08/31 14:18:08;;;;;;;3.15;1.50;;;;;;;;;;5058991;28;20132;-76
2022/08/31 14:20:36;;;;;;;1.70;1.00;;;;;;;;;;5060331;28;20021;-77
2022/08/31 14:23:18;;;;;;;1.45;0.65;;;;;;;;;;5058527;28;20094;-76
2022/08/31 14:25:44;;;;;;;3.30;1.40;;;;;;;;;;5058520;28;20025;-75
2022/08/31 14:28:11;;;;;;;1.23;1.00;;;;;;;;;;5060486;28;20183;-77
2022/08/31 14:30:37;;;;;;;4.85;1.30;;;;;;;;;;5061541;28;20085;-75
2022/08/31 14:33:04;;;;;;;3.30;0.80;;;;;;;;;;5059601;28;20025;-76
2022/08/31 14:35:31;;;;;;;6.07;2.38;;;;;;;;;;5060027;28;20032;-77
2022/08/31 14:37:57;;;;;;;8.65;3.17;;;;;;;;;;5055905;28;20021;-76
2022/08/31 14:40:23;;;;;;;3.85;1.70;;;;;;;;;;5053903;28;20033;-76
2022/08/31 14:42:49;;;;;;;2.75;1.20;;;;;;;;;;5057554;28;20397;-76
2022/08/31 14:45:20;;;;;;;4.25;1.20;;;;;;;;;;5057154;28;20063;-76
2022/08/31 14:47:50;;;;;;;2.72;0.77;;;;;;;;;;5055915;28;20028;-77
2022/08/31 14:50:20;;;;;;;3.10;1.33;;;;;;;;;;5056760;28;20025;-77
2022/08/31 14:52:59;;;;;;;5.85;1.13;;;;;;;;;;5055545;28;20039;-75
2022/08/31 14:55:26;;;;;;;1.60;0.70;;;;;;;;;;5054382;28;20028;-76
2022/08/31 14:58:00;;;;;;;2.50;1.08;;;;;;;;;;5056064;28;20501;-77
2022/08/31 15:00:27;;;;;;;5.35;1.60;;;;;;;;;;5056097;28;20021;-77
2022/08/31 15:02:53;;;;;;;3.30;1.85;;;;;;;;;;5057391;28;20028;-75
2022/08/31 15:05:22;;;;;;;9.52;8.48;;;;;;;;;;5059315;28;20025;-75
2022/08/31 15:07:51;;;;;;;1.63;1.10;;;;;;;;;;5062716;28;20339;-75
2022/08/31 15:10:18;;;;;;;4.78;1.13;;;;;;;;;;5056898;28;20079;-76
2022/08/31 15:12:44;;;;;;;4.88;1.00;;;;;;;;;;5056936;28;20037;-76